Time;durP1;ratioP1;P1;durP2;ratioP2;P2;SDS_P1;SDS_P2;PMS_P1;PMS_P2;Temp;Humidity;BMP_temperature;BMP_pressure;BME280_temperature;BME280_humidity;BME280_pressure;Samples;Min_cycle;Max_cycle;Signal;HPM_P1;HPM_P2
2022/08/19 00:01:50;;;;;;;1.27;1.17;;;;;;;19.72;100.00;101067.63;21038341;28;20101;-74
2022/08/19 00:11:55;;;;;;;1.50;1.40;;;;;;;19.71;100.00;101074.00;20882734;28;20049;-74
2022/08/19 00:21:56;;;;;;;2.65;1.42;;;;;;;19.52;100.00;101059.53;20880437;28;20641;-74
2022/08/19 00:31:59;;;;;;;1.27;1.20;;;;;;;19.40;100.00;101014.78;20879158;28;20051;-74
2022/08/19 00:42:01;;;;;;;1.17;1.13;;;;;;;19.70;100.00;101050.69;20879930;28;20106;-74
2022/08/19 00:52:12;;;;;;;1.40;1.30;;;;;;;19.46;100.00;101022.31;20879901;28;20053;-74
2022/08/19 01:02:15;;;;;;;1.27;1.10;;;;;;;19.68;100.00;101060.81;20924900;28;20055;-74
2022/08/19 01:12:18;;;;;;;1.23;1.13;;;;;;;19.22;100.00;101003.84;21042196;28;20047;-73
2022/08/19 01:22:23;;;;;;;1.65;1.30;;;;;;;19.66;100.00;101074.44;21034782;28;20053;-74
2022/08/19 01:32:32;;;;;;;1.40;1.30;;;;;;;19.65;100.00;101066.50;21041924;28;20052;-74
2022/08/19 01:42:34;;;;;;;0.95;0.90;;;;;;;19.65;100.00;101061.09;21058591;28;20406;-74
2022/08/19 01:52:38;;;;;;;1.10;1.00;;;;;;;19.64;100.00;101062.91;21057980;28;20134;-74
2022/08/19 02:02:39;;;;;;;1.40;1.30;;;;;;;19.28;100.00;101009.53;21042511;28;20105;-74
2022/08/19 02:12:44;;;;;;;;;;;;;;;19.62;100.00;101058.69;21058945;28;20105;-74
2022/08/19 02:22:46;;;;;;;1.48;1.20;;;;;;;19.61;100.00;101075.88;21048678;28;20392;-74
2022/08/19 02:32:47;;;;;;;0.90;0.90;;;;;;;19.61;100.00;101065.06;20990295;28;20135;-74
2022/08/19 02:42:49;;;;;;;1.58;1.05;;;;;;;19.58;100.00;101058.09;20950170;28;20832;-74
2022/08/19 02:52:51;;;;;;;2.10;1.20;;;;;;;19.65;100.00;101064.63;20921871;28;20106;-75
2022/08/19 03:02:53;;;;;;;1.30;0.90;;;;;;;19.66;100.00;101043.88;20920332;28;20059;-74
2022/08/19 03:12:54;;;;;;;1.15;1.05;;;;;;;19.66;100.00;101054.69;20932030;28;20052;-74
2022/08/19 03:22:56;;;;;;;2.08;1.00;;;;;;;19.67;100.00;101048.28;20967389;28;20129;-74
2022/08/19 03:32:58;;;;;;;1.67;0.90;;;;;;;19.67;100.00;101051.00;20947701;28;20040;-74
2022/08/19 03:43:00;;;;;;;1.35;1.08;;;;;;;19.67;100.00;101053.69;20967604;28;20056;-74
2022/08/19 03:53:02;;;;;;;0.88;0.88;;;;;;;19.66;100.00;101049.28;20966631;28;20053;-75
2022/08/19 04:03:04;;;;;;;1.10;1.00;;;;;;;19.60;100.00;101039.06;21018528;28;20409;-74
2022/08/19 04:13:07;;;;;;;1.83;1.20;;;;;;;19.66;100.00;101060.09;21050765;28;20055;-74
2022/08/19 04:23:09;;;;;;;1.00;0.90;;;;;;;19.41;100.00;101013.78;21056023;28;20050;-74
2022/08/19 04:33:12;;;;;;;1.50;0.95;;;;;;;19.67;100.00;101045.59;21047656;28;20058;-75
2022/08/19 04:43:15;;;;;;;1.08;0.98;;;;;;;19.60;100.00;101029.09;21052852;28;20093;-74
2022/08/19 04:53:17;;;;;;;1.10;1.00;;;;;;;19.66;100.00;101039.31;21044925;28;20500;-75
2022/08/19 05:03:19;;;;;;;1.83;1.02;;;;;;;19.65;100.00;101024.13;21033635;28;20044;-74
2022/08/19 05:13:21;;;;;;;1.27;0.95;;;;;;;19.65;100.00;101031.38;21044445;28;20050;-74
2022/08/19 05:23:22;;;;;;;1.73;0.90;;;;;;;19.66;100.00;101033.09;21044683;28;20055;-78
2022/08/19 05:33:24;;;;;;;1.33;1.08;;;;;;;19.48;100.00;101003.25;21015777;28;20086;-74
2022/08/19 05:43:25;;;;;;;2.45;1.50;;;;;;;19.66;100.00;101022.28;20945117;28;20052;-74
2022/08/19 05:53:27;;;;;;;2.03;1.55;;;;;;;19.66;100.00;101022.28;20938147;28;20106;-74
2022/08/19 06:03:28;;;;;;;1.75;1.27;;;;;;;19.66;100.00;101023.13;20914606;28;20045;-75
2022/08/19 06:13:30;;;;;;;1.77;1.30;;;;;;;19.66;100.00;101023.13;20921783;28;20061;-77
2022/08/19 06:23:35;;;;;;;1.60;1.35;;;;;;;19.61;100.00;101008.38;20922746;28;20055;-74
2022/08/19 06:33:37;;;;;;;1.88;1.40;;;;;;;19.48;100.00;100987.94;20929834;28;22002;-74
2022/08/19 06:43:42;;;;;;;1.48;1.38;;;;;;;19.67;100.00;101013.19;20939778;28;20053;-75
2022/08/19 06:53:48;;;;;;;1.73;1.53;;;;;;;19.68;100.00;101025.69;20942256;28;20516;-75
2022/08/19 07:03:55;;;;;;;1.60;1.38;;;;;;;19.67;100.00;101032.97;20913745;28;20098;-74
2022/08/19 07:14:02;;;;;;;3.17;1.40;;;;;;;19.68;100.00;101026.56;20927184;28;20048;-75
2022/08/19 07:24:04;;;;;;;3.63;1.55;;;;;;;19.68;100.00;101036.50;20936421;28;20059;-75
2022/08/19 07:34:10;;;;;;;2.83;1.60;;;;;;;19.66;100.00;101041.19;20934700;28;20055;-75
2022/08/19 07:44:12;;;;;;;1.97;1.57;;;;;;;19.66;100.00;101043.88;20913230;28;20117;-75
2022/08/19 07:54:14;;;;;;;2.58;2.00;;;;;;;19.67;100.00;101053.69;20923262;28;20084;-75
2022/08/19 08:14:54;;;;;;;3.45;2.70;;;;;;;19.66;100.00;101055.53;20879742;28;20041;-75
2022/08/19 08:24:58;;;;;;;2.90;2.35;;;;;;;19.67;100.00;101061.78;20919559;28;20052;-75
2022/08/19 08:35:00;;;;;;;3.25;2.10;;;;;;;19.68;100.00;101058.09;20935834;28;20405;-75
2022/08/19 08:45:15;;;;;;;3.28;2.53;;;;;;;19.59;100.00;101048.16;20915973;28;20401;-75
2022/08/19 08:55:26;;;;;;;3.80;2.67;;;;;;;19.76;100.00;101087.94;20903231;28;20053;-75
2022/08/19 09:05:50;;;;;;;3.78;2.88;;;;;;;19.79;100.00;101076.00;20901625;28;20060;-75
2022/08/19 09:16:01;;;;;;;2.87;2.50;;;;;;;19.80;100.00;101077.72;20879754;28;20155;-74
2022/08/19 09:26:07;;;;;;;2.85;2.55;;;;;;;19.71;100.00;101071.31;20876522;28;20049;-74
2022/08/19 09:36:13;;;;;;;2.95;2.58;;;;;;;19.80;100.00;101067.75;20890221;28;20451;-74
2022/08/19 09:46:30;;;;;;;3.15;2.47;;;;;;;19.81;100.00;101079.41;20890848;28;20057;-74
2022/08/19 09:56:32;;;;;;;3.13;2.40;;;;;;;19.81;100.00;101074.84;20873158;28;20539;-74
2022/08/19 10:06:36;;;;;;;4.45;2.80;;;;;;;19.81;100.00;101068.59;20887968;28;20053;-74
2022/08/19 10:16:47;;;;;;;3.50;2.90;;;;;;;19.80;100.00;101051.53;20914765;28;20053;-74
2022/08/19 10:26:49;;;;;;;3.55;2.90;;;;;;;19.80;100.00;101054.22;20921219;28;20050;-74
2022/08/19 10:36:59;;;;;;;3.28;2.47;;;;;;;19.59;100.00;101023.88;20920921;28;20048;-73
2022/08/19 10:47:03;;;;;;;3.67;3.25;;;;;;;19.80;100.00;101051.53;20913815;28;20106;-74
2022/08/19 10:57:18;;;;;;;3.65;2.85;;;;;;;19.67;100.00;101034.78;20904913;28;20075;-73
2022/08/19 11:07:20;;;;;;;3.90;3.40;;;;;;;19.79;100.00;101043.59;20901072;28;20064;-74
2022/08/19 11:17:23;;;;;;;3.72;3.42;;;;;;;19.81;100.00;101050.53;20898790;28;20071;-74
2022/08/19 11:27:24;;;;;;;3.80;3.40;;;;;;;19.60;100.00;101018.31;20896768;28;20131;-74
2022/08/19 11:37:26;;;;;;;4.35;3.10;;;;;;;19.63;100.00;101011.78;20900076;28;20508;-74
2022/08/19 11:47:30;;;;;;;3.65;3.13;;;;;;;19.82;100.00;101052.22;20899099;28;20044;-73
2022/08/19 11:57:32;;;;;;;4.22;3.47;;;;;;;19.67;100.00;101015.88;20907079;28;20051;-74
2022/08/19 12:07:34;;;;;;;3.80;3.40;;;;;;;19.84;100.00;101041.28;20899120;28;20056;-74
2022/08/19 12:17:35;;;;;;;3.40;3.10;;;;;;;19.82;100.00;101049.53;20907605;28;20048;-75
2022/08/19 12:27:38;;;;;;;4.35;3.95;;;;;;;19.84;100.00;101039.44;20912898;28;20517;-75
2022/08/19 12:37:44;;;;;;;;;;;;;;;19.83;100.00;101029.63;20904567;28;20549;-74
2022/08/19 12:47:46;;;;;;;3.67;3.30;;;;;;;19.84;100.00;101034.03;20907425;28;19920;-74
2022/08/19 12:57:48;;;;;;;4.13;3.70;;;;;;;19.84;100.00;101036.72;20903702;28;20040;-74
2022/08/19 13:07:51;;;;;;;4.72;4.18;;;;;;;19.67;100.00;101002.38;20892732;28;20520;-74
2022/08/19 13:17:55;;;;;;;3.70;3.40;;;;;;;19.75;100.00;101018.69;20894342;28;20444;-73
2022/08/19 13:27:57;;;;;;;3.03;2.72;;;;;;;19.91;100.00;101025.41;20896028;28;20060;-73
2022/08/19 13:38:00;;;;;;;3.83;3.47;;;;;;;19.93;100.00;101012.59;20899192;28;20053;-74
2022/08/19 13:48:08;;;;;;;4.68;3.03;;;;;;;20.00;100.00;101021.81;20871843;28;20091;-74
2022/08/19 13:58:11;;;;;;;3.90;3.10;;;;;;;20.04;100.00;101019.66;20872942;28;20052;-74
2022/08/19 14:08:13;;;;;;;3.00;2.78;;;;;;;20.08;100.00;101010.25;20901012;28;20214;-74
2022/08/19 14:18:17;;;;;;;3.45;3.15;;;;;;;20.09;100.00;101002.00;20902559;28;20053;-74
2022/08/19 14:28:19;;;;;;;3.75;2.92;;;;;;;20.08;100.00;100994.03;20891064;28;20049;-74
2022/08/19 14:38:31;;;;;;;4.57;4.13;;;;;;;20.12;100.00;100996.28;20871724;28;20045;-74
2022/08/19 14:48:32;;;;;;;4.75;3.67;;;;;;;20.17;100.00;101008.50;20886366;28;20056;-73
2022/08/19 14:58:35;;;;;;;4.80;4.10;;;;;;;20.22;100.00;101009.78;20880177;28;20110;-74
2022/08/19 15:08:42;;;;;;;6.50;4.38;;;;;;;20.26;100.00;101002.19;20882279;28;20386;-74
2022/08/19 15:18:45;;;;;;;5.35;4.22;;;;;;;20.24;100.00;101017.72;20894847;28;20145;-75
2022/08/19 15:28:48;;;;;;;4.90;4.38;;;;;;;20.21;100.00;101010.78;20909191;28;20102;-74
2022/08/19 15:38:51;;;;;;;7.13;3.85;;;;;;;20.16;100.00;101023.88;20908730;28;20056;-75
2022/08/19 15:48:54;;;;;;;5.40;4.30;;;;;;;20.12;100.00;101027.88;20881567;28;20056;-74
2022/08/19 16:09:23;;;;;;;6.85;5.03;;;;;;;20.02;100.00;101022.50;20890999;28;20071;-74
2022/08/19 16:19:28;;;;;;;5.78;5.07;;;;;;;20.05;100.00;101037.56;20882911;28;20390;-74
2022/08/19 16:29:29;;;;;;;8.00;5.70;;;;;;;20.03;100.00;101055.78;20892227;28;20090;-74
2022/08/19 16:39:40;;;;;;;7.38;5.82;;;;;;;20.02;100.00;101064.88;20899162;28;20949;-74
2022/08/19 16:49:44;;;;;;;7.60;5.47;;;;;;;20.03;100.00;101062.03;20884293;28;20053;-74
2022/08/19 16:59:55;;;;;;;6.15;5.35;;;;;;;20.03;100.00;101063.88;20925842;28;20052;-74
2022/08/19 17:09:57;;;;;;;6.25;5.38;;;;;;;20.02;100.00;101065.75;20942114;28;20586;-74
2022/08/19 17:20:01;;;;;;;7.68;5.28;;;;;;;20.02;100.00;101071.16;20923282;28;20060;-74
2022/08/19 17:30:04;;;;;;;6.07;5.47;;;;;;;20.00;100.00;101062.34;20933914;28;20408;-74
2022/08/19 17:40:07;;;;;;;7.57;5.57;;;;;;;20.00;100.00;101067.75;20931260;28;20053;-74
2022/08/19 17:50:11;;;;;;;6.82;5.53;;;;;;;19.99;100.00;101071.44;20931650;28;20452;-74
2022/08/19 18:00:14;;;;;;;6.73;5.27;;;;;;;19.99;100.00;101066.03;20902664;28;20048;-75
2022/08/19 18:10:18;;;;;;;;;;;;;;;19.98;100.00;101086.78;20931437;28;20055;-75
2022/08/19 18:20:20;;;;;;;5.18;4.68;;;;;;;19.76;100.00;101050.13;20922520;28;19955;-75
2022/08/19 18:30:25;;;;;;;6.43;4.93;;;;;;;19.81;100.00;101066.75;20935658;28;20140;-74
2022/08/19 18:50:49;;;;;;;5.85;4.78;;;;;;;19.96;100.00;101112.28;21030874;28;20130;-74
2022/08/19 19:00:55;;;;;;;5.68;5.13;;;;;;;19.96;100.00;101085.25;20967365;28;20087;-74
2022/08/19 19:11:03;;;;;;;5.50;4.90;;;;;;;19.95;100.00;101115.97;20945105;28;20049;-74
2022/08/19 19:21:06;;;;;;;5.28;4.43;;;;;;;19.95;100.00;101129.47;20970060;28;20102;-74
2022/08/19 19:31:11;;;;;;;5.65;4.20;;;;;;;19.95;100.00;101145.69;20967576;28;20497;-74
2022/08/19 19:41:14;;;;;;;;;;;;;;;19.94;100.00;101144.81;21035863;28;20051;-75
2022/08/19 19:51:15;;;;;;;4.40;4.00;;;;;;;19.93;100.00;101145.00;20997358;28;19920;-74
2022/08/19 20:01:17;;;;;;;4.35;3.90;;;;;;;19.92;100.00;101157.63;20966632;28;20786;-75
2022/08/19 20:11:34;;;;;;;4.53;4.10;;;;;;;19.93;100.00;101155.78;20966371;28;20045;-75
2022/08/19 20:21:42;;;;;;;3.75;3.45;;;;;;;19.91;100.00;101158.63;20965384;28;20125;-75
2022/08/19 20:31:44;;;;;;;3.55;3.22;;;;;;;19.86;100.00;101142.81;20963789;28;20120;-74
2022/08/19 20:41:59;;;;;;;3.80;3.35;;;;;;;19.92;100.00;101156.78;21032560;28;20446;-74
2022/08/19 20:52:02;;;;;;;3.42;3.13;;;;;;;19.90;100.00;101153.34;21046118;28;20515;-74
2022/08/19 21:02:04;;;;;;;3.78;3.38;;;;;;;19.90;100.00;101158.75;21045890;28;20046;-74
2022/08/19 21:12:06;;;;;;;3.50;3.20;;;;;;;19.90;100.00;101153.34;21045586;28;20046;-74
2022/08/19 21:22:08;;;;;;;3.20;2.90;;;;;;;19.78;100.00;101129.16;21045161;28;20044;-74
2022/08/19 21:32:10;;;;;;;3.20;2.90;;;;;;;19.89;100.00;101155.19;21032417;28;20044;-75
2022/08/19 21:42:15;;;;;;;3.42;3.13;;;;;;;19.76;100.00;101146.53;21042600;28;20051;-74
2022/08/19 21:52:21;;;;;;;3.08;2.88;;;;;;;19.73;100.00;101136.84;21044877;28;20051;-74
2022/08/19 22:02:23;;;;;;;3.42;3.13;;;;;;;19.88;100.00;101166.13;21060824;28;20074;-74
2022/08/19 22:12:29;;;;;;;3.05;2.78;;;;;;;19.83;100.00;101159.31;21058791;28;20093;-74
2022/08/19 22:22:32;;;;;;;3.00;2.70;;;;;;;19.66;100.00;101151.91;21057271;28;20067;-74
2022/08/19 22:32:33;;;;;;;2.90;2.70;;;;;;;19.79;100.00;101157.88;21038976;28;20044;-74
2022/08/19 22:42:36;;;;;;;2.53;2.33;;;;;;;19.85;100.00;101195.13;21056823;28;20079;-74
2022/08/19 22:52:38;;;;;;;2.83;2.58;;;;;;;19.85;100.00;101189.72;21056338;28;20087;-74
2022/08/19 23:02:53;;;;;;;2.40;2.20;;;;;;;19.85;100.00;101199.69;21055303;28;20043;-75
2022/08/19 23:12:57;;;;;;;2.78;2.30;;;;;;;19.84;100.00;101198.00;21035560;28;20050;-75
2022/08/19 23:23:02;;;;;;;2.40;2.20;;;;;;;19.84;100.00;101198.00;21052089;28;20867;-74
2022/08/19 23:33:09;;;;;;;2.40;2.23;;;;;;;19.83;100.00;101201.69;21044535;28;20101;-75
2022/08/19 23:43:14;;;;;;;2.40;2.20;;;;;;;19.76;100.00;101193.28;21034399;28;20052;-75
2022/08/19 23:53:25;;;;;;;2.88;2.53;;;;;;;19.82;100.00;101195.41;21051223;28;20519;-75
